West Alex, Ohio
Current Conditions -  °F | °C
As of 11:15 PM on Thursday 27 Nov 2014 (Local Time) from KMWO Reporting Station
Overcast Overcast  
Wind Chill: 22°   Ceiling: 3700
Heat Index: 29°   Visibility: 10mi
Dew Point: 17°   Wind: 7mph
Humidity: 59%   Direction: 280°W
Pressure: 30.4"   Gusts: NA
Location:  39.7249°N, 84.5328°W
Report Text: KMWO 280415Z AUTO 28006KT 10SM OVC037 M01/M09 A3040 RMK AO2 T10151086
Loading
Personal Weather Stations






























Interactive Weather Map New forecast layout! Learn more

10-Day Weather Forecast

Advertisements
Track Severe Weather on mobile